Airfield :
LOGIN :

Register | Disclaimer

   EN    FR    IT 

 










Legend :    VFR   Marginal VFR   IFR   Intensive IFR   Very Intensive IFR
Visi :
Ceiling :
>= 8 km
>= 3000ft
5 to 8 km
1000 to 3000 ft
1500m to 5 km
500 to 1000 ft
800 to 1500m
200 to 500 ft
< 800m
< 200 ft
Symbols :   Thunderstorms  Fog  Heavy snow  Heavy precipitations  Wind > 20 kt
SIGMETs :     Misc.  Thunderstorms  Icing  Turbulence  Mountain Waves  Volcanic Ashes






- Airport Elevation : 348 ft
- IATA code : STN


EGSS - London Stansted

CURRENT METAR :
  • 271450Z AUTO 31015G29KT 9999 SCT039 07/M01 Q1003

EXPIRED METARs :
  • 271420Z AUTO 32013KT 9999 SCT035 BKN045 06/M01 Q1002
  • 271350Z AUTO 31014G25KT 9999 SCT030 BKN038 06/01 Q1001
  • 271320Z AUTO 31012KT 280V340 9999 SCT024 BKN032 06/01 Q1000
  • 271250Z AUTO 32012KT 9999 SCT010 BKN017 BKN025 05/03 Q1000
  • 271220Z AUTO 31010KT 9999 BKN006 OVC027 03/03 Q0999

TAF TAF EGSS
Valid from the 27 at 12:00 until the 28 at 18:00 UTC


271107Z 2712/2818 31012KT 4000 -SN BKN003
BECMG 2712/2714 9999 NSW SCT030
TEMPO 2712/2718 32017G27KT
BECMG 2718/2721 24006KT
BECMG 2808/2811 16012KT 8000 -RA BKN010
TEMPO 2809/2812 4000 RA BKN006
PROB30
TEMPO 2811/2815 17015G25KT
BECMG 2812/2815 SCT003 BKN006
TEMPO 2812/2818 3000 RA BKN003
BECMG 2815/2818 22015KT
TEMPO 2815/2818 23017G30KT
ATIS : +44 1279 669 325



MET'MAP, your aeronautical weather chart ! - Copyright ORBIFLY December 2007 - Disclaimer

ORBIFLY MET'MAP TEAM :

Programming & Development : Alexandra Zaïnal
Concept & original design : Baudouin d'Aumeries
Assistance for programming : Marc-Olivier Méhu
Technical & hardware support : Manuel Goepfert

Contact : metmap@orbifly.com




SOURCES & CREDITS :

   NOAA